sensor_id;sensor_type;location;lat;lon;timestamp;temperature;humidity
1570;DHT22;778;50.120;8.698;2022-12-18T00:00:11;-6.90;99.90
1570;DHT22;778;50.120;8.698;2022-12-18T00:02:40;-7.00;99.90
1570;DHT22;778;50.120;8.698;2022-12-18T00:05:10;-7.00;99.90
1570;DHT22;778;50.120;8.698;2022-12-18T00:07:38;-7.10;99.90
1570;DHT22;778;50.120;8.698;2022-12-18T00:10:08;-7.20;99.90
1570;DHT22;778;50.120;8.698;2022-12-18T00:12:41;-7.40;99.90
1570;DHT22;778;50.120;8.698;2022-12-18T00:15:09;-7.40;99.90
1570;DHT22;778;50.120;8.698;2022-12-18T00:17:37;-7.30;99.90
1570;DHT22;778;50.120;8.698;2022-12-18T00:20:07;-7.20;99.90
1570;DHT22;778;50.120;8.698;2022-12-18T00:22:38;-7.20;99.90
1570;DHT22;778;50.120;8.698;2022-12-18T00:25:07;-7.10;99.90
1570;DHT22;778;50.120;8.698;2022-12-18T00:27:35;-7.10;99.90
1570;DHT22;778;50.120;8.698;2022-12-18T00:30:05;-7.10;99.90
1570;DHT22;778;50.120;8.698;2022-12-18T00:32:33;-6.90;99.90
1570;DHT22;778;50.120;8.698;2022-12-18T00:35:02;-6.90;99.90
1570;DHT22;778;50.120;8.698;2022-12-18T00:37:31;-6.90;99.90
1570;DHT22;778;50.120;8.698;2022-12-18T00:40:03;-7.00;99.90
1570;DHT22;778;50.120;8.698;2022-12-18T00:42:36;-7.00;99.90
1570;DHT22;778;50.120;8.698;2022-12-18T00:45:24;-6.90;99.90
1570;DHT22;778;50.120;8.698;2022-12-18T00:47:54;-6.90;99.90
1570;DHT22;778;50.120;8.698;2022-12-18T00:50:24;-7.00;99.90
1570;DHT22;778;50.120;8.698;2022-12-18T00:52:52;-7.00;99.90
1570;DHT22;778;50.120;8.698;2022-12-18T00:55:22;-7.00;99.90
1570;DHT22;778;50.120;8.698;2022-12-18T00:57:51;-7.20;99.90
1570;DHT22;778;50.120;8.698;2022-12-18T01:00:20;-7.20;99.90
1570;DHT22;778;50.120;8.698;2022-12-18T01:02:49;-7.20;99.90
1570;DHT22;778;50.120;8.698;2022-12-18T01:05:17;-7.30;99.90
1570;DHT22;778;50.120;8.698;2022-12-18T01:07:46;-7.20;99.90
1570;DHT22;778;50.120;8.698;2022-12-18T01:10:19;-7.20;99.90
1570;DHT22;778;50.120;8.698;2022-12-18T01:12:49;-7.10;99.90
1570;DHT22;778;50.120;8.698;2022-12-18T01:15:18;-6.50;99.90
1570;DHT22;778;50.120;8.698;2022-12-18T01:17:47;-6.00;99.90
1570;DHT22;778;50.120;8.698;2022-12-18T01:20:15;-5.80;99.90
1570;DHT22;778;50.120;8.698;2022-12-18T01:22:45;-5.70;99.90
1570;DHT22;778;50.120;8.698;2022-12-18T01:25:13;-5.20;99.90
1570;DHT22;778;50.120;8.698;2022-12-18T01:27:42;-5.60;99.90
1570;DHT22;778;50.120;8.698;2022-12-18T01:30:12;-6.30;99.90
1570;DHT22;778;50.120;8.698;2022-12-18T01:32:41;-6.50;99.90
1570;DHT22;778;50.120;8.698;2022-12-18T01:35:10;-6.70;99.90
1570;DHT22;778;50.120;8.698;2022-12-18T01:37:38;-6.80;99.90
1570;DHT22;778;50.120;8.698;2022-12-18T01:40:08;-6.80;99.90
1570;DHT22;778;50.120;8.698;2022-12-18T01:42:37;-7.00;99.90
1570;DHT22;778;50.120;8.698;2022-12-18T01:45:23;-7.10;99.90
1570;DHT22;778;50.120;8.698;2022-12-18T01:47:57;-7.00;99.90
1570;DHT22;778;50.120;8.698;2022-12-18T01:50:31;-7.00;99.90
1570;DHT22;778;50.120;8.698;2022-12-18T01:53:05;-7.10;99.90
1570;DHT22;778;50.120;8.698;2022-12-18T01:55:38;-7.20;99.90
1570;DHT22;778;50.120;8.698;2022-12-18T01:58:14;-7.10;99.90
1570;DHT22;778;50.120;8.698;2022-12-18T02:00:46;-7.20;99.90
1570;DHT22;778;50.120;8.698;2022-12-18T02:03:14;-7.20;99.90
1570;DHT22;778;50.120;8.698;2022-12-18T02:05:47;-7.20;99.90
1570;DHT22;778;50.120;8.698;2022-12-18T02:08:26;-7.10;99.90
1570;DHT22;778;50.120;8.698;2022-12-18T02:11:04;-7.30;99.90
1570;DHT22;778;50.120;8.698;2022-12-18T02:13:41;-7.30;99.90
1570;DHT22;778;50.120;8.698;2022-12-18T02:16:20;-7.30;99.90
1570;DHT22;778;50.120;8.698;2022-12-18T02:18:56;-7.20;99.90
1570;DHT22;778;50.120;8.698;2022-12-18T02:21:32;-7.20;99.90
1570;DHT22;778;50.120;8.698;2022-12-18T02:24:14;-7.20;99.90
1570;DHT22;778;50.120;8.698;2022-12-18T02:26:49;-7.10;99.90
1570;DHT22;778;50.120;8.698;2022-12-18T02:29:23;-7.10;99.90
1570;DHT22;778;50.120;8.698;2022-12-18T02:31:56;-7.00;99.90
1570;DHT22;778;50.120;8.698;2022-12-18T02:34:30;-7.00;99.90
1570;DHT22;778;50.120;8.698;2022-12-18T02:37:03;-7.00;99.90
1570;DHT22;778;50.120;8.698;2022-12-18T02:39:35;-7.10;99.90
1570;DHT22;778;50.120;8.698;2022-12-18T02:42:07;-7.10;99.90
1570;DHT22;778;50.120;8.698;2022-12-18T02:44:42;-7.00;99.90
1570;DHT22;778;50.120;8.698;2022-12-18T02:47:13;-7.10;99.90
1570;DHT22;778;50.120;8.698;2022-12-18T02:49:49;-7.10;99.90
1570;DHT22;778;50.120;8.698;2022-12-18T02:52:31;-7.10;99.90
1570;DHT22;778;50.120;8.698;2022-12-18T02:55:15;-7.20;99.90
1570;DHT22;778;50.120;8.698;2022-12-18T02:57:59;-7.30;99.90
1570;DHT22;778;50.120;8.698;2022-12-18T03:00:39;-7.30;99.90
1570;DHT22;778;50.120;8.698;2022-12-18T03:03:12;-7.30;99.90
1570;DHT22;778;50.120;8.698;2022-12-18T03:05:47;-7.30;99.90
1570;DHT22;778;50.120;8.698;2022-12-18T03:08:20;-7.30;99.90
1570;DHT22;778;50.120;8.698;2022-12-18T03:10:58;-7.30;99.90
1570;DHT22;778;50.120;8.698;2022-12-18T03:13:35;-7.20;99.90
1570;DHT22;778;50.120;8.698;2022-12-18T03:16:11;-7.30;99.90
1570;DHT22;778;50.120;8.698;2022-12-18T03:18:46;-7.40;99.90
1570;DHT22;778;50.120;8.698;2022-12-18T03:21:19;-7.40;99.90
1570;DHT22;778;50.120;8.698;2022-12-18T03:23:51;-7.30;99.90
1570;DHT22;778;50.120;8.698;2022-12-18T03:26:25;-7.20;99.90
1570;DHT22;778;50.120;8.698;2022-12-18T03:29:03;-7.30;99.90
1570;DHT22;778;50.120;8.698;2022-12-18T03:31:37;-7.30;99.90
1570;DHT22;778;50.120;8.698;2022-12-18T03:34:12;-7.30;99.90
1570;DHT22;778;50.120;8.698;2022-12-18T03:36:45;-7.30;99.90
1570;DHT22;778;50.120;8.698;2022-12-18T03:39:14;-7.20;99.90
1570;DHT22;778;50.120;8.698;2022-12-18T03:41:55;-7.20;99.90
1570;DHT22;778;50.120;8.698;2022-12-18T03:44:39;-7.20;99.90
1570;DHT22;778;50.120;8.698;2022-12-18T03:47:14;-7.10;99.90
1570;DHT22;778;50.120;8.698;2022-12-18T03:49:50;-7.20;99.90
1570;DHT22;778;50.120;8.698;2022-12-18T03:52:26;-7.20;99.90
1570;DHT22;778;50.120;8.698;2022-12-18T03:54:59;-7.10;99.90
1570;DHT22;778;50.120;8.698;2022-12-18T03:57:31;-7.10;99.90
1570;DHT22;778;50.120;8.698;2022-12-18T04:00:07;-7.10;99.90
1570;DHT22;778;50.120;8.698;2022-12-18T04:02:52;-7.10;99.90
1570;DHT22;778;50.120;8.698;2022-12-18T04:05:33;-7.20;99.90
1570;DHT22;778;50.120;8.698;2022-12-18T04:08:05;-7.30;99.90
1570;DHT22;778;50.120;8.698;2022-12-18T04:10:37;-7.20;99.90
1570;DHT22;778;50.120;8.698;2022-12-18T04:13:06;-7.20;99.90
1570;DHT22;778;50.120;8.698;2022-12-18T04:15:37;-7.20;99.90
1570;DHT22;778;50.120;8.698;2022-12-18T04:18:09;-7.20;99.90
1570;DHT22;778;50.120;8.698;2022-12-18T04:20:41;-7.20;99.90
1570;DHT22;778;50.120;8.698;2022-12-18T04:23:10;-7.20;99.90
1570;DHT22;778;50.120;8.698;2022-12-18T04:25:38;-7.20;99.90
1570;DHT22;778;50.120;8.698;2022-12-18T04:28:10;-7.30;99.90
1570;DHT22;778;50.120;8.698;2022-12-18T04:30:40;-7.30;99.90
1570;DHT22;778;50.120;8.698;2022-12-18T04:33:09;-7.30;99.90
1570;DHT22;778;50.120;8.698;2022-12-18T04:35:43;-7.20;99.90
1570;DHT22;778;50.120;8.698;2022-12-18T04:38:13;-7.20;99.90
1570;DHT22;778;50.120;8.698;2022-12-18T04:40:42;-7.10;99.90
1570;DHT22;778;50.120;8.698;2022-12-18T04:43:21;-7.10;99.90
1570;DHT22;778;50.120;8.698;2022-12-18T04:45:51;-7.00;99.90
1570;DHT22;778;50.120;8.698;2022-12-18T04:48:20;-7.10;99.90
1570;DHT22;778;50.120;8.698;2022-12-18T04:50:48;-7.10;99.90
1570;DHT22;778;50.120;8.698;2022-12-18T04:53:17;-7.10;99.90
1570;DHT22;778;50.120;8.698;2022-12-18T04:55:45;-7.10;99.90
1570;DHT22;778;50.120;8.698;2022-12-18T04:58:13;-7.10;99.90
1570;DHT22;778;50.120;8.698;2022-12-18T05:00:42;-7.10;99.90
1570;DHT22;778;50.120;8.698;2022-12-18T05:03:12;-7.00;99.90
1570;DHT22;778;50.120;8.698;2022-12-18T05:05:40;-6.90;99.90
1570;DHT22;778;50.120;8.698;2022-12-18T05:08:09;-6.90;99.90
1570;DHT22;778;50.120;8.698;2022-12-18T05:10:37;-6.80;99.90
1570;DHT22;778;50.120;8.698;2022-12-18T05:13:05;-6.80;99.90
1570;DHT22;778;50.120;8.698;2022-12-18T05:15:34;-6.80;99.90
1570;DHT22;778;50.120;8.698;2022-12-18T05:18:03;-6.90;99.90
1570;DHT22;778;50.120;8.698;2022-12-18T05:20:33;-6.90;99.90
1570;DHT22;778;50.120;8.698;2022-12-18T05:23:01;-6.80;99.90
1570;DHT22;778;50.120;8.698;2022-12-18T05:25:30;-6.80;99.90
1570;DHT22;778;50.120;8.698;2022-12-18T05:27:58;-6.90;99.90
1570;DHT22;778;50.120;8.698;2022-12-18T05:30:26;-6.80;99.90
1570;DHT22;778;50.120;8.698;2022-12-18T05:32:55;-6.80;99.90
1570;DHT22;778;50.120;8.698;2022-12-18T05:35:23;-6.90;99.90
1570;DHT22;778;50.120;8.698;2022-12-18T05:37:53;-6.80;99.90
1570;DHT22;778;50.120;8.698;2022-12-18T05:40:21;-6.80;99.90
1570;DHT22;778;50.120;8.698;2022-12-18T05:42:50;-6.80;99.90
1570;DHT22;778;50.120;8.698;2022-12-18T05:45:18;-6.80;99.90
1570;DHT22;778;50.120;8.698;2022-12-18T05:47:47;-6.80;99.90
1570;DHT22;778;50.120;8.698;2022-12-18T05:50:15;-6.80;99.90
1570;DHT22;778;50.120;8.698;2022-12-18T05:52:44;-6.80;99.90
1570;DHT22;778;50.120;8.698;2022-12-18T05:55:13;-6.90;99.90
1570;DHT22;778;50.120;8.698;2022-12-18T05:57:42;-6.90;99.90
1570;DHT22;778;50.120;8.698;2022-12-18T06:00:12;-6.80;99.90
1570;DHT22;778;50.120;8.698;2022-12-18T06:02:46;-6.80;99.90
1570;DHT22;778;50.120;8.698;2022-12-18T06:05:15;-6.80;99.90
1570;DHT22;778;50.120;8.698;2022-12-18T06:07:43;-6.70;99.90
1570;DHT22;778;50.120;8.698;2022-12-18T06:10:13;-6.70;99.90
1570;DHT22;778;50.120;8.698;2022-12-18T06:12:41;-6.70;99.90
1570;DHT22;778;50.120;8.698;2022-12-18T06:15:10;-6.70;99.90
1570;DHT22;778;50.120;8.698;2022-12-18T06:17:39;-6.60;99.90
1570;DHT22;778;50.120;8.698;2022-12-18T06:20:09;-6.70;99.90
1570;DHT22;778;50.120;8.698;2022-12-18T06:22:37;-6.60;99.90
1570;DHT22;778;50.120;8.698;2022-12-18T06:25:07;-6.60;99.90
1570;DHT22;778;50.120;8.698;2022-12-18T06:27:37;-6.70;99.90
1570;DHT22;778;50.120;8.698;2022-12-18T06:30:09;-6.60;99.90
1570;DHT22;778;50.120;8.698;2022-12-18T06:32:38;-6.60;99.90
1570;DHT22;778;50.120;8.698;2022-12-18T06:35:07;-5.90;99.90
1570;DHT22;778;50.120;8.698;2022-12-18T06:37:36;-5.10;99.90
1570;DHT22;778;50.120;8.698;2022-12-18T06:40:05;-4.60;99.90
1570;DHT22;778;50.120;8.698;2022-12-18T06:42:34;-4.30;99.90
1570;DHT22;778;50.120;8.698;2022-12-18T06:45:05;-3.50;99.90
1570;DHT22;778;50.120;8.698;2022-12-18T06:47:34;-3.80;99.90
1570;DHT22;778;50.120;8.698;2022-12-18T06:50:03;-4.80;99.90
1570;DHT22;778;50.120;8.698;2022-12-18T06:52:32;-5.40;99.90
1570;DHT22;778;50.120;8.698;2022-12-18T06:55:01;-5.80;99.90
1570;DHT22;778;50.120;8.698;2022-12-18T06:57:29;-6.00;99.90
1570;DHT22;778;50.120;8.698;2022-12-18T06:59:59;-6.20;99.90
1570;DHT22;778;50.120;8.698;2022-12-18T07:02:27;-6.20;99.90
1570;DHT22;778;50.120;8.698;2022-12-18T07:04:56;-6.30;99.90
1570;DHT22;778;50.120;8.698;2022-12-18T07:07:24;-6.40;99.90
1570;DHT22;778;50.120;8.698;2022-12-18T07:09:53;-6.50;99.90
1570;DHT22;778;50.120;8.698;2022-12-18T07:12:21;-6.50;99.90
1570;DHT22;778;50.120;8.698;2022-12-18T07:14:50;-6.50;99.90
1570;DHT22;778;50.120;8.698;2022-12-18T07:17:19;-6.50;99.90
1570;DHT22;778;50.120;8.698;2022-12-18T07:19:48;-6.60;99.90
1570;DHT22;778;50.120;8.698;2022-12-18T07:22:16;-6.50;99.90
1570;DHT22;778;50.120;8.698;2022-12-18T07:24:44;-6.60;99.90
1570;DHT22;778;50.120;8.698;2022-12-18T07:27:17;-6.60;99.90
1570;DHT22;778;50.120;8.698;2022-12-18T07:29:45;-6.70;99.90
1570;DHT22;778;50.120;8.698;2022-12-18T07:32:14;-6.70;99.90
1570;DHT22;778;50.120;8.698;2022-12-18T07:34:44;-6.80;99.90
1570;DHT22;778;50.120;8.698;2022-12-18T07:37:13;-6.70;99.90
1570;DHT22;778;50.120;8.698;2022-12-18T07:39:41;-6.70;99.90
1570;DHT22;778;50.120;8.698;2022-12-18T07:42:09;-6.60;99.90
1570;DHT22;778;50.120;8.698;2022-12-18T07:44:55;-6.60;99.90
1570;DHT22;778;50.120;8.698;2022-12-18T07:47:24;-6.50;99.90
1570;DHT22;778;50.120;8.698;2022-12-18T07:49:55;-6.50;99.90
1570;DHT22;778;50.120;8.698;2022-12-18T07:52:24;-6.40;99.90
1570;DHT22;778;50.120;8.698;2022-12-18T07:54:53;-6.50;99.90
1570;DHT22;778;50.120;8.698;2022-12-18T07:57:21;-6.50;99.90
1570;DHT22;778;50.120;8.698;2022-12-18T08:00:11;-6.50;99.90
1570;DHT22;778;50.120;8.698;2022-12-18T08:02:40;-6.40;99.90
1570;DHT22;778;50.120;8.698;2022-12-18T08:05:10;-6.40;99.90
1570;DHT22;778;50.120;8.698;2022-12-18T08:07:39;-6.40;99.90
1570;DHT22;778;50.120;8.698;2022-12-18T08:10:08;-6.50;99.90
1570;DHT22;778;50.120;8.698;2022-12-18T08:12:36;-6.50;99.90
1570;DHT22;778;50.120;8.698;2022-12-18T08:15:06;-6.50;99.90
1570;DHT22;778;50.120;8.698;2022-12-18T08:17:34;-6.50;99.90
1570;DHT22;778;50.120;8.698;2022-12-18T08:20:03;-6.50;99.90
1570;DHT22;778;50.120;8.698;2022-12-18T08:22:35;-6.40;99.90
1570;DHT22;778;50.120;8.698;2022-12-18T08:25:07;-6.30;99.90
1570;DHT22;778;50.120;8.698;2022-12-18T08:27:36;-6.20;99.90
1570;DHT22;778;50.120;8.698;2022-12-18T08:30:06;-6.20;99.90
1570;DHT22;778;50.120;8.698;2022-12-18T08:32:35;-6.10;99.90
1570;DHT22;778;50.120;8.698;2022-12-18T08:35:05;-6.10;99.90
1570;DHT22;778;50.120;8.698;2022-12-18T08:37:36;-6.00;99.90
1570;DHT22;778;50.120;8.698;2022-12-18T08:40:05;-6.00;99.90
1570;DHT22;778;50.120;8.698;2022-12-18T08:42:35;-6.00;99.90
1570;DHT22;778;50.120;8.698;2022-12-18T08:45:21;-5.80;99.90
1570;DHT22;778;50.120;8.698;2022-12-18T08:47:50;-5.80;99.90
1570;DHT22;778;50.120;8.698;2022-12-18T08:50:18;-5.70;99.90
1570;DHT22;778;50.120;8.698;2022-12-18T08:52:48;-5.60;99.90
1570;DHT22;778;50.120;8.698;2022-12-18T08:55:16;-5.60;99.90
1570;DHT22;778;50.120;8.698;2022-12-18T08:57:48;-5.60;99.90
1570;DHT22;778;50.120;8.698;2022-12-18T09:00:17;-5.60;99.90
1570;DHT22;778;50.120;8.698;2022-12-18T09:02:46;-5.60;99.90
1570;DHT22;778;50.120;8.698;2022-12-18T09:05:15;-5.60;99.90
1570;DHT22;778;50.120;8.698;2022-12-18T09:07:43;-5.60;99.90
1570;DHT22;778;50.120;8.698;2022-12-18T09:10:14;-5.60;99.90
1570;DHT22;778;50.120;8.698;2022-12-18T09:12:43;-5.70;99.90
1570;DHT22;778;50.120;8.698;2022-12-18T09:15:11;-5.60;99.90
1570;DHT22;778;50.120;8.698;2022-12-18T09:17:39;-5.60;99.90
1570;DHT22;778;50.120;8.698;2022-12-18T09:20:09;-5.60;99.90
1570;DHT22;778;50.120;8.698;2022-12-18T09:22:38;-5.70;99.90
1570;DHT22;778;50.120;8.698;2022-12-18T09:25:06;-5.60;99.90
1570;DHT22;778;50.120;8.698;2022-12-18T09:27:36;-5.70;99.90
1570;DHT22;778;50.120;8.698;2022-12-18T09:30:07;-5.60;99.90
1570;DHT22;778;50.120;8.698;2022-12-18T09:32:36;-5.60;99.90
1570;DHT22;778;50.120;8.698;2022-12-18T09:35:05;-5.60;99.90
1570;DHT22;778;50.120;8.698;2022-12-18T09:37:33;-5.60;99.90
1570;DHT22;778;50.120;8.698;2022-12-18T09:40:02;-5.60;99.90
1570;DHT22;778;50.120;8.698;2022-12-18T09:42:31;-5.50;99.90
1570;DHT22;778;50.120;8.698;2022-12-18T09:45:01;-5.50;99.90
1570;DHT22;778;50.120;8.698;2022-12-18T09:47:35;-5.50;99.90
1570;DHT22;778;50.120;8.698;2022-12-18T09:50:14;-5.20;99.90
1570;DHT22;778;50.120;8.698;2022-12-18T09:52:50;-5.10;99.90
1570;DHT22;778;50.120;8.698;2022-12-18T09:55:25;-5.30;99.90
1570;DHT22;778;50.120;8.698;2022-12-18T09:58:06;-5.10;99.90
1570;DHT22;778;50.120;8.698;2022-12-18T10:00:40;-4.80;99.90
1570;DHT22;778;50.120;8.698;2022-12-18T10:03:13;-4.90;99.90
1570;DHT22;778;50.120;8.698;2022-12-18T10:05:47;-5.00;99.90
1570;DHT22;778;50.120;8.698;2022-12-18T10:08:27;-5.00;99.90
1570;DHT22;778;50.120;8.698;2022-12-18T10:11:20;-5.00;99.90
1570;DHT22;778;50.120;8.698;2022-12-18T10:13:57;-4.90;99.90
1570;DHT22;778;50.120;8.698;2022-12-18T10:16:36;-4.90;99.90
1570;DHT22;778;50.120;8.698;2022-12-18T10:19:34;-4.80;99.90
1570;DHT22;778;50.120;8.698;2022-12-18T10:22:15;-4.80;99.90
1570;DHT22;778;50.120;8.698;2022-12-18T10:24:55;-4.80;99.90
1570;DHT22;778;50.120;8.698;2022-12-18T10:27:28;-4.70;99.90
1570;DHT22;778;50.120;8.698;2022-12-18T10:29:59;-4.70;99.90
1570;DHT22;778;50.120;8.698;2022-12-18T10:32:35;-4.70;99.90
1570;DHT22;778;50.120;8.698;2022-12-18T10:35:08;-4.40;99.90
1570;DHT22;778;50.120;8.698;2022-12-18T10:38:00;-4.50;99.90
1570;DHT22;778;50.120;8.698;2022-12-18T10:40:48;-4.60;99.90
1570;DHT22;778;50.120;8.698;2022-12-18T10:43:24;-4.70;99.90
1570;DHT22;778;50.120;8.698;2022-12-18T10:46:15;-4.50;99.90
1570;DHT22;778;50.120;8.698;2022-12-18T10:48:53;-4.40;99.90
1570;DHT22;778;50.120;8.698;2022-12-18T10:51:24;-4.40;99.90
1570;DHT22;778;50.120;8.698;2022-12-18T10:54:00;-4.30;99.90
1570;DHT22;778;50.120;8.698;2022-12-18T10:56:34;-4.40;99.90
1570;DHT22;778;50.120;8.698;2022-12-18T10:59:05;-4.30;99.90
1570;DHT22;778;50.120;8.698;2022-12-18T11:01:49;-4.20;99.90
1570;DHT22;778;50.120;8.698;2022-12-18T11:04:22;-4.10;99.90
1570;DHT22;778;50.120;8.698;2022-12-18T11:06:57;-4.20;99.90
1570;DHT22;778;50.120;8.698;2022-12-18T11:09:27;-4.30;99.90
1570;DHT22;778;50.120;8.698;2022-12-18T11:12:00;-4.20;99.90
1570;DHT22;778;50.120;8.698;2022-12-18T11:14:33;-4.30;99.90
1570;DHT22;778;50.120;8.698;2022-12-18T11:17:02;-4.10;99.90
1570;DHT22;778;50.120;8.698;2022-12-18T11:19:56;-3.90;99.90
1570;DHT22;778;50.120;8.698;2022-12-18T11:22:27;-3.60;99.90
1570;DHT22;778;50.120;8.698;2022-12-18T11:24:58;-3.30;99.90
1570;DHT22;778;50.120;8.698;2022-12-18T11:27:49;-3.30;99.90
1570;DHT22;778;50.120;8.698;2022-12-18T11:30:24;-3.00;99.90
1570;DHT22;778;50.120;8.698;2022-12-18T11:33:01;-2.90;99.90
1570;DHT22;778;50.120;8.698;2022-12-18T11:35:40;-3.50;99.90
1570;DHT22;778;50.120;8.698;2022-12-18T11:38:20;-3.80;99.90
1570;DHT22;778;50.120;8.698;2022-12-18T11:40:56;-3.90;99.90
1570;DHT22;778;50.120;8.698;2022-12-18T11:43:29;-4.10;99.90
1570;DHT22;778;50.120;8.698;2022-12-18T11:46:02;-3.90;99.90
1570;DHT22;778;50.120;8.698;2022-12-18T11:48:37;-4.00;99.90
1570;DHT22;778;50.120;8.698;2022-12-18T11:51:14;-4.10;99.90
1570;DHT22;778;50.120;8.698;2022-12-18T11:53:52;-4.10;99.90
1570;DHT22;778;50.120;8.698;2022-12-18T11:56:29;-3.90;99.90
1570;DHT22;778;50.120;8.698;2022-12-18T11:59:07;-3.90;99.90
1570;DHT22;778;50.120;8.698;2022-12-18T12:01:48;-3.90;99.90
1570;DHT22;778;50.120;8.698;2022-12-18T12:04:37;-3.70;99.90
1570;DHT22;778;50.120;8.698;2022-12-18T12:07:33;-3.50;99.90
1570;DHT22;778;50.120;8.698;2022-12-18T12:10:16;-3.30;99.90
1570;DHT22;778;50.120;8.698;2022-12-18T12:13:04;-3.30;99.90
1570;DHT22;778;50.120;8.698;2022-12-18T12:15:51;-3.10;99.90
1570;DHT22;778;50.120;8.698;2022-12-18T12:18:34;-2.80;99.90
1570;DHT22;778;50.120;8.698;2022-12-18T12:21:16;-2.90;99.90
1570;DHT22;778;50.120;8.698;2022-12-18T12:23:59;-3.00;99.90
1570;DHT22;778;50.120;8.698;2022-12-18T12:26:35;-3.10;99.90
1570;DHT22;778;50.120;8.698;2022-12-18T12:29:17;-3.40;99.90
1570;DHT22;778;50.120;8.698;2022-12-18T12:32:19;-3.30;99.90
1570;DHT22;778;50.120;8.698;2022-12-18T12:35:05;-3.20;99.90
1570;DHT22;778;50.120;8.698;2022-12-18T12:37:49;-3.10;99.90
1570;DHT22;778;50.120;8.698;2022-12-18T12:40:27;-3.20;99.90
1570;DHT22;778;50.120;8.698;2022-12-18T12:43:27;-3.30;99.90
1570;DHT22;778;50.120;8.698;2022-12-18T12:46:01;-3.30;99.90
1570;DHT22;778;50.120;8.698;2022-12-18T12:48:40;-3.20;99.90
1570;DHT22;778;50.120;8.698;2022-12-18T12:51:16;-3.20;99.90
1570;DHT22;778;50.120;8.698;2022-12-18T12:53:47;-3.30;99.90
1570;DHT22;778;50.120;8.698;2022-12-18T12:56:19;-3.20;99.90
1570;DHT22;778;50.120;8.698;2022-12-18T12:59:04;-3.30;99.90
1570;DHT22;778;50.120;8.698;2022-12-18T13:01:41;-3.30;99.90
1570;DHT22;778;50.120;8.698;2022-12-18T13:04:23;-3.30;99.90
1570;DHT22;778;50.120;8.698;2022-12-18T13:07:01;-3.20;99.90
1570;DHT22;778;50.120;8.698;2022-12-18T13:09:33;-3.10;99.90
1570;DHT22;778;50.120;8.698;2022-12-18T13:12:11;-3.10;99.90
1570;DHT22;778;50.120;8.698;2022-12-18T13:15:12;-2.90;99.90
1570;DHT22;778;50.120;8.698;2022-12-18T13:17:47;-2.90;99.90
1570;DHT22;778;50.120;8.698;2022-12-18T13:20:16;-3.00;99.90
1570;DHT22;778;50.120;8.698;2022-12-18T13:22:46;-3.00;99.90
1570;DHT22;778;50.120;8.698;2022-12-18T13:25:31;-3.10;99.90
1570;DHT22;778;50.120;8.698;2022-12-18T13:28:08;-3.30;99.90
1570;DHT22;778;50.120;8.698;2022-12-18T13:30:48;-3.20;99.90
1570;DHT22;778;50.120;8.698;2022-12-18T13:33:47;-3.20;99.90
1570;DHT22;778;50.120;8.698;2022-12-18T13:36:35;-3.20;99.90
1570;DHT22;778;50.120;8.698;2022-12-18T13:39:34;-3.30;99.90
1570;DHT22;778;50.120;8.698;2022-12-18T13:42:40;-3.30;99.90
1570;DHT22;778;50.120;8.698;2022-12-18T13:45:41;-3.30;99.90
1570;DHT22;778;50.120;8.698;2022-12-18T13:48:18;-3.30;99.90
1570;DHT22;778;50.120;8.698;2022-12-18T13:50:57;-3.40;99.90
1570;DHT22;778;50.120;8.698;2022-12-18T13:53:30;-3.50;99.90
1570;DHT22;778;50.120;8.698;2022-12-18T13:56:02;-3.50;99.90
1570;DHT22;778;50.120;8.698;2022-12-18T13:58:32;-3.40;99.90
1570;DHT22;778;50.120;8.698;2022-12-18T14:01:02;-3.40;99.90
1570;DHT22;778;50.120;8.698;2022-12-18T14:03:32;-3.40;99.90
1570;DHT22;778;50.120;8.698;2022-12-18T14:06:04;-3.40;99.90
1570;DHT22;778;50.120;8.698;2022-12-18T14:08:37;-3.40;99.90
1570;DHT22;778;50.120;8.698;2022-12-18T14:11:17;-3.40;99.90
1570;DHT22;778;50.120;8.698;2022-12-18T14:13:50;-3.40;99.90
1570;DHT22;778;50.120;8.698;2022-12-18T14:16:20;-3.30;99.90
1570;DHT22;778;50.120;8.698;2022-12-18T14:18:52;-3.30;99.90
1570;DHT22;778;50.120;8.698;2022-12-18T14:21:30;-3.30;99.90
1570;DHT22;778;50.120;8.698;2022-12-18T14:24:06;-3.30;99.90
1570;DHT22;778;50.120;8.698;2022-12-18T14:26:46;-3.30;99.90
1570;DHT22;778;50.120;8.698;2022-12-18T14:29:23;-3.30;99.90
1570;DHT22;778;50.120;8.698;2022-12-18T14:32:08;-3.30;99.90
1570;DHT22;778;50.120;8.698;2022-12-18T14:34:46;-3.30;99.90
1570;DHT22;778;50.120;8.698;2022-12-18T14:37:16;-3.30;99.90
1570;DHT22;778;50.120;8.698;2022-12-18T14:39:55;-3.30;99.90
1570;DHT22;778;50.120;8.698;2022-12-18T14:42:25;-3.20;99.90
1570;DHT22;778;50.120;8.698;2022-12-18T14:45:33;-3.20;99.90
1570;DHT22;778;50.120;8.698;2022-12-18T14:48:16;-3.20;99.90
1570;DHT22;778;50.120;8.698;2022-12-18T14:51:00;-3.20;99.90
1570;DHT22;778;50.120;8.698;2022-12-18T14:53:36;-3.20;99.90
1570;DHT22;778;50.120;8.698;2022-12-18T14:56:16;-3.20;99.90
1570;DHT22;778;50.120;8.698;2022-12-18T14:58:47;-3.20;99.90
1570;DHT22;778;50.120;8.698;2022-12-18T15:01:28;-3.20;99.90
1570;DHT22;778;50.120;8.698;2022-12-18T15:04:00;-3.20;99.90
1570;DHT22;778;50.120;8.698;2022-12-18T15:06:32;-3.20;99.90
1570;DHT22;778;50.120;8.698;2022-12-18T15:09:04;-3.30;99.90
1570;DHT22;778;50.120;8.698;2022-12-18T15:11:47;-3.30;99.90
1570;DHT22;778;50.120;8.698;2022-12-18T15:14:24;-3.30;99.90
1570;DHT22;778;50.120;8.698;2022-12-18T15:16:59;-3.30;99.90
1570;DHT22;778;50.120;8.698;2022-12-18T15:19:34;-3.30;99.90
1570;DHT22;778;50.120;8.698;2022-12-18T15:22:17;-3.20;99.90
1570;DHT22;778;50.120;8.698;2022-12-18T15:24:48;-3.10;99.90
1570;DHT22;778;50.120;8.698;2022-12-18T15:27:24;-3.20;99.90
1570;DHT22;778;50.120;8.698;2022-12-18T15:30:20;-3.20;99.90
1570;DHT22;778;50.120;8.698;2022-12-18T15:32:50;-3.20;99.90
1570;DHT22;778;50.120;8.698;2022-12-18T15:35:22;-3.20;99.90
1570;DHT22;778;50.120;8.698;2022-12-18T15:37:52;-3.20;99.90
1570;DHT22;778;50.120;8.698;2022-12-18T15:40:21;-3.20;99.90
1570;DHT22;778;50.120;8.698;2022-12-18T15:42:53;-3.20;99.90
1570;DHT22;778;50.120;8.698;2022-12-18T15:45:39;-3.20;99.90
1570;DHT22;778;50.120;8.698;2022-12-18T15:48:18;-3.20;99.90
1570;DHT22;778;50.120;8.698;2022-12-18T15:50:50;-3.30;99.90
1570;DHT22;778;50.120;8.698;2022-12-18T15:53:20;-3.30;99.90
1570;DHT22;778;50.120;8.698;2022-12-18T15:55:49;-3.20;99.90
1570;DHT22;778;50.120;8.698;2022-12-18T15:58:36;-3.20;99.90
1570;DHT22;778;50.120;8.698;2022-12-18T16:01:05;-3.20;99.90
1570;DHT22;778;50.120;8.698;2022-12-18T16:03:33;-3.20;99.90
1570;DHT22;778;50.120;8.698;2022-12-18T16:06:03;-3.20;99.90
1570;DHT22;778;50.120;8.698;2022-12-18T16:08:32;-3.20;99.90
1570;DHT22;778;50.120;8.698;2022-12-18T16:11:01;-3.20;99.90
1570;DHT22;778;50.120;8.698;2022-12-18T16:13:29;-3.20;99.90
1570;DHT22;778;50.120;8.698;2022-12-18T16:15:58;-3.10;99.90
1570;DHT22;778;50.120;8.698;2022-12-18T16:18:26;-3.10;99.90
1570;DHT22;778;50.120;8.698;2022-12-18T16:20:55;-3.10;99.90
1570;DHT22;778;50.120;8.698;2022-12-18T16:23:25;-3.10;99.90
1570;DHT22;778;50.120;8.698;2022-12-18T16:25:54;-3.20;99.90
1570;DHT22;778;50.120;8.698;2022-12-18T16:28:22;-3.20;99.90
1570;DHT22;778;50.120;8.698;2022-12-18T16:30:51;-3.20;99.90
1570;DHT22;778;50.120;8.698;2022-12-18T16:33:19;-3.10;99.90
1570;DHT22;778;50.120;8.698;2022-12-18T16:35:51;-3.10;99.90
1570;DHT22;778;50.120;8.698;2022-12-18T16:38:20;-3.10;99.90
1570;DHT22;778;50.120;8.698;2022-12-18T16:40:50;-3.10;99.90
1570;DHT22;778;50.120;8.698;2022-12-18T16:43:36;-3.10;99.90
1570;DHT22;778;50.120;8.698;2022-12-18T16:46:05;-3.00;99.90
1570;DHT22;778;50.120;8.698;2022-12-18T16:48:34;-3.00;99.90
1570;DHT22;778;50.120;8.698;2022-12-18T16:51:03;-3.00;99.90
1570;DHT22;778;50.120;8.698;2022-12-18T16:53:33;-3.00;99.90
1570;DHT22;778;50.120;8.698;2022-12-18T16:56:03;-3.00;99.90
1570;DHT22;778;50.120;8.698;2022-12-18T16:58:32;-3.00;99.90